sensor_id;sensor_type;location;lat;lon;timestamp;P1;durP1;ratioP1;P2;durP2;ratioP2
71164;SDS011;58859;55.132;-1.586;2023-07-28T00:02:02;3.38;;;1.10;;
71164;SDS011;58859;55.132;-1.586;2023-07-28T00:04:28;1.93;;;0.73;;
71164;SDS011;58859;55.132;-1.586;2023-07-28T00:06:54;0.88;;;0.70;;
71164;SDS011;58859;55.132;-1.586;2023-07-28T00:09:19;0.77;;;0.57;;
71164;SDS011;58859;55.132;-1.586;2023-07-28T00:11:44;0.83;;;0.83;;
71164;SDS011;58859;55.132;-1.586;2023-07-28T00:14:10;1.30;;;0.90;;
71164;SDS011;58859;55.132;-1.586;2023-07-28T00:16:35;1.00;;;1.00;;
71164;SDS011;58859;55.132;-1.586;2023-07-28T00:19:01;0.60;;;0.60;;
71164;SDS011;58859;55.132;-1.586;2023-07-28T00:21:26;0.83;;;0.70;;
71164;SDS011;58859;55.132;-1.586;2023-07-28T00:23:52;0.80;;;0.80;;
71164;SDS011;58859;55.132;-1.586;2023-07-28T00:26:17;0.85;;;0.85;;
71164;SDS011;58859;55.132;-1.586;2023-07-28T00:28:43;3.17;;;1.03;;
71164;SDS011;58859;55.132;-1.586;2023-07-28T00:31:08;1.10;;;1.10;;
71164;SDS011;58859;55.132;-1.586;2023-07-28T00:33:33;0.80;;;0.80;;
71164;SDS011;58859;55.132;-1.586;2023-07-28T00:35:59;0.83;;;0.70;;
71164;SDS011;58859;55.132;-1.586;2023-07-28T00:38:24;1.00;;;1.00;;
71164;SDS011;58859;55.132;-1.586;2023-07-28T00:40:50;1.27;;;1.17;;
71164;SDS011;58859;55.132;-1.586;2023-07-28T00:43:15;0.87;;;0.87;;
71164;SDS011;58859;55.132;-1.586;2023-07-28T00:45:41;0.93;;;0.93;;
71164;SDS011;58859;55.132;-1.586;2023-07-28T00:48:08;1.10;;;1.10;;
71164;SDS011;58859;55.132;-1.586;2023-07-28T00:50:36;1.05;;;1.02;;
71164;SDS011;58859;55.132;-1.586;2023-07-28T00:53:02;1.27;;;0.85;;
71164;SDS011;58859;55.132;-1.586;2023-07-28T00:55:28;1.20;;;1.20;;
71164;SDS011;58859;55.132;-1.586;2023-07-28T00:57:54;1.33;;;1.33;;
71164;SDS011;58859;55.132;-1.586;2023-07-28T01:00:19;1.60;;;1.50;;
71164;SDS011;58859;55.132;-1.586;2023-07-28T01:02:44;1.67;;;1.17;;
71164;SDS011;58859;55.132;-1.586;2023-07-28T01:05:10;1.60;;;1.30;;
71164;SDS011;58859;55.132;-1.586;2023-07-28T01:07:57;1.35;;;1.02;;
71164;SDS011;58859;55.132;-1.586;2023-07-28T01:10:28;1.17;;;1.08;;
71164;SDS011;58859;55.132;-1.586;2023-07-28T01:12:56;2.53;;;1.00;;
71164;SDS011;58859;55.132;-1.586;2023-07-28T01:15:21;0.98;;;0.98;;
71164;SDS011;58859;55.132;-1.586;2023-07-28T01:17:47;1.40;;;1.30;;
71164;SDS011;58859;55.132;-1.586;2023-07-28T01:20:12;2.20;;;1.30;;
71164;SDS011;58859;55.132;-1.586;2023-07-28T01:22:48;1.00;;;1.00;;
71164;SDS011;58859;55.132;-1.586;2023-07-28T01:28:21;1.70;;;1.50;;
71164;SDS011;58859;55.132;-1.586;2023-07-28T01:30:47;1.38;;;1.10;;
71164;SDS011;58859;55.132;-1.586;2023-07-28T01:33:13;1.43;;;1.40;;
71164;SDS011;58859;55.132;-1.586;2023-07-28T01:35:38;1.43;;;1.33;;
71164;SDS011;58859;55.132;-1.586;2023-07-28T01:38:04;1.88;;;1.35;;
71164;SDS011;58859;55.132;-1.586;2023-07-28T01:40:30;2.93;;;1.57;;
71164;SDS011;58859;55.132;-1.586;2023-07-28T01:42:55;1.30;;;1.30;;
71164;SDS011;58859;55.132;-1.586;2023-07-28T01:45:21;1.77;;;1.40;;
71164;SDS011;58859;55.132;-1.586;2023-07-28T01:47:46;2.23;;;1.53;;
71164;SDS011;58859;55.132;-1.586;2023-07-28T01:50:12;2.63;;;2.15;;
71164;SDS011;58859;55.132;-1.586;2023-07-28T01:52:37;2.15;;;1.40;;
71164;SDS011;58859;55.132;-1.586;2023-07-28T01:55:03;1.53;;;1.43;;
71164;SDS011;58859;55.132;-1.586;2023-07-28T01:57:32;1.05;;;1.05;;
71164;SDS011;58859;55.132;-1.586;2023-07-28T01:59:58;1.65;;;1.40;;
71164;SDS011;58859;55.132;-1.586;2023-07-28T02:02:23;4.22;;;1.35;;
71164;SDS011;58859;55.132;-1.586;2023-07-28T02:04:49;1.07;;;1.07;;
71164;SDS011;58859;55.132;-1.586;2023-07-28T02:07:14;1.80;;;1.70;;
71164;SDS011;58859;55.132;-1.586;2023-07-28T02:09:40;1.30;;;1.20;;
71164;SDS011;58859;55.132;-1.586;2023-07-28T02:12:05;3.17;;;1.60;;
71164;SDS011;58859;55.132;-1.586;2023-07-28T02:14:31;1.50;;;1.40;;
71164;SDS011;58859;55.132;-1.586;2023-07-28T02:16:56;1.50;;;1.40;;
71164;SDS011;58859;55.132;-1.586;2023-07-28T02:19:22;1.27;;;1.20;;
71164;SDS011;58859;55.132;-1.586;2023-07-28T02:21:47;1.52;;;1.42;;
71164;SDS011;58859;55.132;-1.586;2023-07-28T02:24:12;1.63;;;1.43;;
71164;SDS011;58859;55.132;-1.586;2023-07-28T02:26:38;1.63;;;1.53;;
71164;SDS011;58859;55.132;-1.586;2023-07-28T02:29:03;1.77;;;1.67;;
71164;SDS011;58859;55.132;-1.586;2023-07-28T02:31:29;1.67;;;1.57;;
71164;SDS011;58859;55.132;-1.586;2023-07-28T02:33:54;1.63;;;1.50;;
71164;SDS011;58859;55.132;-1.586;2023-07-28T02:36:20;1.30;;;1.20;;
71164;SDS011;58859;55.132;-1.586;2023-07-28T02:38:45;1.67;;;1.58;;
71164;SDS011;58859;55.132;-1.586;2023-07-28T02:41:11;2.47;;;1.67;;
71164;SDS011;58859;55.132;-1.586;2023-07-28T02:43:36;3.50;;;1.50;;
71164;SDS011;58859;55.132;-1.586;2023-07-28T02:46:02;1.47;;;1.37;;
71164;SDS011;58859;55.132;-1.586;2023-07-28T02:48:28;1.27;;;1.23;;
71164;SDS011;58859;55.132;-1.586;2023-07-28T02:50:53;1.97;;;1.87;;
71164;SDS011;58859;55.132;-1.586;2023-07-28T02:53:19;1.60;;;1.50;;
71164;SDS011;58859;55.132;-1.586;2023-07-28T02:55:45;1.40;;;1.30;;
71164;SDS011;58859;55.132;-1.586;2023-07-28T02:58:11;1.58;;;1.27;;
71164;SDS011;58859;55.132;-1.586;2023-07-28T03:00:38;1.77;;;1.67;;
71164;SDS011;58859;55.132;-1.586;2023-07-28T03:03:04;2.30;;;1.63;;
71164;SDS011;58859;55.132;-1.586;2023-07-28T03:05:33;2.08;;;1.88;;
71164;SDS011;58859;55.132;-1.586;2023-07-28T03:07:58;1.50;;;1.40;;
71164;SDS011;58859;55.132;-1.586;2023-07-28T03:10:24;1.73;;;1.63;;
71164;SDS011;58859;55.132;-1.586;2023-07-28T03:12:50;1.50;;;1.23;;
71164;SDS011;58859;55.132;-1.586;2023-07-28T03:15:15;2.47;;;2.10;;
71164;SDS011;58859;55.132;-1.586;2023-07-28T03:17:41;1.98;;;1.40;;
71164;SDS011;58859;55.132;-1.586;2023-07-28T03:20:06;1.83;;;1.40;;
71164;SDS011;58859;55.132;-1.586;2023-07-28T03:22:32;2.63;;;1.90;;
71164;SDS011;58859;55.132;-1.586;2023-07-28T03:24:57;1.90;;;1.80;;
71164;SDS011;58859;55.132;-1.586;2023-07-28T03:27:23;1.90;;;1.53;;
71164;SDS011;58859;55.132;-1.586;2023-07-28T03:29:49;1.42;;;1.33;;
71164;SDS011;58859;55.132;-1.586;2023-07-28T03:32:15;1.90;;;1.80;;
71164;SDS011;58859;55.132;-1.586;2023-07-28T03:34:40;2.37;;;1.60;;
71164;SDS011;58859;55.132;-1.586;2023-07-28T03:37:05;1.87;;;1.60;;
71164;SDS011;58859;55.132;-1.586;2023-07-28T03:39:31;2.30;;;2.10;;
71164;SDS011;58859;55.132;-1.586;2023-07-28T03:41:56;2.10;;;1.90;;
71164;SDS011;58859;55.132;-1.586;2023-07-28T03:44:22;2.07;;;1.87;;
71164;SDS011;58859;55.132;-1.586;2023-07-28T03:46:48;2.13;;;2.03;;
71164;SDS011;58859;55.132;-1.586;2023-07-28T03:49:13;4.80;;;1.90;;
71164;SDS011;58859;55.132;-1.586;2023-07-28T03:51:39;2.40;;;1.88;;
71164;SDS011;58859;55.132;-1.586;2023-07-28T03:54:05;3.53;;;1.73;;
71164;SDS011;58859;55.132;-1.586;2023-07-28T03:56:30;1.90;;;1.80;;
71164;SDS011;58859;55.132;-1.586;2023-07-28T03:58:55;2.90;;;1.80;;
71164;SDS011;58859;55.132;-1.586;2023-07-28T04:01:21;3.20;;;1.70;;
71164;SDS011;58859;55.132;-1.586;2023-07-28T04:03:47;5.30;;;1.63;;
71164;SDS011;58859;55.132;-1.586;2023-07-28T04:06:12;1.90;;;1.80;;
71164;SDS011;58859;55.132;-1.586;2023-07-28T04:08:39;1.67;;;1.40;;
71164;SDS011;58859;55.132;-1.586;2023-07-28T04:11:05;1.95;;;1.50;;
71164;SDS011;58859;55.132;-1.586;2023-07-28T04:13:30;2.78;;;1.55;;
71164;SDS011;58859;55.132;-1.586;2023-07-28T04:15:56;1.30;;;1.20;;
71164;SDS011;58859;55.132;-1.586;2023-07-28T04:18:21;1.63;;;1.53;;
71164;SDS011;58859;55.132;-1.586;2023-07-28T04:20:46;2.70;;;1.67;;
71164;SDS011;58859;55.132;-1.586;2023-07-28T04:23:12;1.30;;;1.20;;
71164;SDS011;58859;55.132;-1.586;2023-07-28T04:25:37;1.70;;;1.60;;
71164;SDS011;58859;55.132;-1.586;2023-07-28T04:28:03;2.28;;;1.52;;
71164;SDS011;58859;55.132;-1.586;2023-07-28T04:30:28;1.60;;;1.50;;
71164;SDS011;58859;55.132;-1.586;2023-07-28T04:32:54;2.87;;;1.70;;
71164;SDS011;58859;55.132;-1.586;2023-07-28T04:35:19;1.90;;;1.80;;
71164;SDS011;58859;55.132;-1.586;2023-07-28T04:37:44;1.98;;;1.80;;
71164;SDS011;58859;55.132;-1.586;2023-07-28T04:40:10;2.07;;;1.93;;
71164;SDS011;58859;55.132;-1.586;2023-07-28T04:42:36;2.20;;;1.70;;
71164;SDS011;58859;55.132;-1.586;2023-07-28T04:45:02;1.77;;;1.67;;
71164;SDS011;58859;55.132;-1.586;2023-07-28T04:47:28;3.13;;;2.00;;
71164;SDS011;58859;55.132;-1.586;2023-07-28T04:49:53;2.28;;;1.80;;
71164;SDS011;58859;55.132;-1.586;2023-07-28T04:52:18;3.60;;;2.40;;
71164;SDS011;58859;55.132;-1.586;2023-07-28T04:54:44;2.47;;;2.17;;
71164;SDS011;58859;55.132;-1.586;2023-07-28T04:57:09;4.90;;;2.17;;
71164;SDS011;58859;55.132;-1.586;2023-07-28T04:59:34;2.07;;;1.87;;
71164;SDS011;58859;55.132;-1.586;2023-07-28T05:02:00;2.53;;;2.03;;
71164;SDS011;58859;55.132;-1.586;2023-07-28T05:04:25;2.10;;;1.87;;
71164;SDS011;58859;55.132;-1.586;2023-07-28T05:06:50;3.07;;;2.20;;
71164;SDS011;58859;55.132;-1.586;2023-07-28T05:09:16;3.33;;;2.40;;
71164;SDS011;58859;55.132;-1.586;2023-07-28T05:11:41;2.47;;;2.27;;
71164;SDS011;58859;55.132;-1.586;2023-07-28T05:14:07;3.77;;;2.27;;
71164;SDS011;58859;55.132;-1.586;2023-07-28T05:16:33;2.50;;;2.30;;
71164;SDS011;58859;55.132;-1.586;2023-07-28T05:18:59;3.10;;;1.50;;
71164;SDS011;58859;55.132;-1.586;2023-07-28T05:21:25;2.20;;;2.00;;
71164;SDS011;58859;55.132;-1.586;2023-07-28T05:23:50;5.17;;;2.03;;
71164;SDS011;58859;55.132;-1.586;2023-07-28T05:26:16;2.67;;;2.23;;
71164;SDS011;58859;55.132;-1.586;2023-07-28T05:28:41;2.30;;;2.10;;
71164;SDS011;58859;55.132;-1.586;2023-07-28T05:31:06;2.73;;;2.50;;
71164;SDS011;58859;55.132;-1.586;2023-07-28T05:33:32;2.58;;;2.38;;
71164;SDS011;58859;55.132;-1.586;2023-07-28T05:35:59;2.35;;;2.15;;
71164;SDS011;58859;55.132;-1.586;2023-07-28T05:38:28;2.58;;;2.30;;
71164;SDS011;58859;55.132;-1.586;2023-07-28T05:40:57;4.10;;;2.42;;
71164;SDS011;58859;55.132;-1.586;2023-07-28T05:43:25;5.78;;;2.47;;
71164;SDS011;58859;55.132;-1.586;2023-07-28T05:45:51;3.45;;;2.35;;
71164;SDS011;58859;55.132;-1.586;2023-07-28T05:48:16;2.80;;;2.60;;
71164;SDS011;58859;55.132;-1.586;2023-07-28T05:50:42;3.13;;;2.60;;
71164;SDS011;58859;55.132;-1.586;2023-07-28T05:53:07;2.33;;;2.08;;
71164;SDS011;58859;55.132;-1.586;2023-07-28T05:55:32;2.95;;;2.42;;
71164;SDS011;58859;55.132;-1.586;2023-07-28T05:57:58;2.67;;;2.43;;
71164;SDS011;58859;55.132;-1.586;2023-07-28T06:00:23;2.53;;;2.23;;
71164;SDS011;58859;55.132;-1.586;2023-07-28T06:02:49;2.20;;;2.00;;
71164;SDS011;58859;55.132;-1.586;2023-07-28T06:05:14;1.80;;;1.60;;
71164;SDS011;58859;55.132;-1.586;2023-07-28T06:07:40;2.17;;;2.00;;
71164;SDS011;58859;55.132;-1.586;2023-07-28T06:10:06;2.22;;;1.90;;
71164;SDS011;58859;55.132;-1.586;2023-07-28T06:12:32;2.50;;;2.30;;
71164;SDS011;58859;55.132;-1.586;2023-07-28T06:14:57;2.27;;;2.07;;
71164;SDS011;58859;55.132;-1.586;2023-07-28T06:17:23;3.00;;;2.47;;
71164;SDS011;58859;55.132;-1.586;2023-07-28T06:19:48;2.92;;;2.00;;
71164;SDS011;58859;55.132;-1.586;2023-07-28T06:22:14;2.20;;;1.90;;
71164;SDS011;58859;55.132;-1.586;2023-07-28T06:24:41;3.37;;;2.47;;
71164;SDS011;58859;55.132;-1.586;2023-07-28T06:27:06;2.70;;;2.42;;
71164;SDS011;58859;55.132;-1.586;2023-07-28T06:29:33;2.28;;;1.98;;
71164;SDS011;58859;55.132;-1.586;2023-07-28T06:31:59;3.30;;;2.50;;
71164;SDS011;58859;55.132;-1.586;2023-07-28T06:34:25;2.00;;;1.90;;
71164;SDS011;58859;55.132;-1.586;2023-07-28T06:36:50;2.20;;;2.00;;
71164;SDS011;58859;55.132;-1.586;2023-07-28T06:39:15;2.23;;;2.03;;
71164;SDS011;58859;55.132;-1.586;2023-07-28T06:41:41;2.30;;;2.10;;
71164;SDS011;58859;55.132;-1.586;2023-07-28T06:44:06;2.80;;;1.97;;
71164;SDS011;58859;55.132;-1.586;2023-07-28T06:46:33;1.95;;;1.85;;
71164;SDS011;58859;55.132;-1.586;2023-07-28T06:48:59;1.70;;;1.60;;
71164;SDS011;58859;55.132;-1.586;2023-07-28T06:51:24;1.77;;;1.67;;
71164;SDS011;58859;55.132;-1.586;2023-07-28T06:53:50;1.80;;;1.70;;
71164;SDS011;58859;55.132;-1.586;2023-07-28T06:56:16;2.45;;;1.90;;
71164;SDS011;58859;55.132;-1.586;2023-07-28T06:58:42;3.03;;;2.50;;
71164;SDS011;58859;55.132;-1.586;2023-07-28T07:01:07;1.83;;;1.73;;
71164;SDS011;58859;55.132;-1.586;2023-07-28T07:03:35;2.20;;;2.10;;
71164;SDS011;58859;55.132;-1.586;2023-07-28T07:06:01;1.95;;;1.73;;
71164;SDS011;58859;55.132;-1.586;2023-07-28T07:08:27;2.27;;;1.67;;
71164;SDS011;58859;55.132;-1.586;2023-07-28T07:10:52;2.47;;;1.50;;
71164;SDS011;58859;55.132;-1.586;2023-07-28T07:13:18;3.83;;;1.80;;
71164;SDS011;58859;55.132;-1.586;2023-07-28T07:15:44;2.80;;;1.55;;
71164;SDS011;58859;55.132;-1.586;2023-07-28T07:18:10;1.80;;;1.47;;
71164;SDS011;58859;55.132;-1.586;2023-07-28T07:20:36;2.65;;;1.65;;
71164;SDS011;58859;55.132;-1.586;2023-07-28T07:23:03;2.05;;;1.48;;
71164;SDS011;58859;55.132;-1.586;2023-07-28T07:25:29;2.10;;;1.90;;
71164;SDS011;58859;55.132;-1.586;2023-07-28T07:27:55;1.70;;;1.60;;
71164;SDS011;58859;55.132;-1.586;2023-07-28T07:30:20;2.60;;;2.20;;
71164;SDS011;58859;55.132;-1.586;2023-07-28T07:32:46;2.10;;;1.77;;
71164;SDS011;58859;55.132;-1.586;2023-07-28T07:35:11;2.93;;;1.50;;
71164;SDS011;58859;55.132;-1.586;2023-07-28T07:37:37;2.07;;;1.87;;
71164;SDS011;58859;55.132;-1.586;2023-07-28T07:40:03;2.53;;;2.13;;
71164;SDS011;58859;55.132;-1.586;2023-07-28T07:42:47;2.28;;;1.88;;
71164;SDS011;58859;55.132;-1.586;2023-07-28T07:45:14;2.05;;;1.90;;
71164;SDS011;58859;55.132;-1.586;2023-07-28T07:47:40;1.70;;;1.60;;
71164;SDS011;58859;55.132;-1.586;2023-07-28T07:50:07;2.35;;;1.45;;
71164;SDS011;58859;55.132;-1.586;2023-07-28T07:52:34;2.05;;;1.95;;
71164;SDS011;58859;55.132;-1.586;2023-07-28T07:55:00;1.55;;;1.45;;
71164;SDS011;58859;55.132;-1.586;2023-07-28T07:57:26;2.80;;;2.20;;
71164;SDS011;58859;55.132;-1.586;2023-07-28T07:59:51;2.37;;;2.03;;
71164;SDS011;58859;55.132;-1.586;2023-07-28T08:02:17;2.10;;;1.90;;
71164;SDS011;58859;55.132;-1.586;2023-07-28T08:04:42;1.90;;;1.80;;
71164;SDS011;58859;55.132;-1.586;2023-07-28T08:07:08;2.20;;;2.10;;
71164;SDS011;58859;55.132;-1.586;2023-07-28T08:09:33;3.08;;;1.70;;
71164;SDS011;58859;55.132;-1.586;2023-07-28T08:11:59;1.70;;;1.60;;
71164;SDS011;58859;55.132;-1.586;2023-07-28T08:14:25;2.13;;;1.52;;
71164;SDS011;58859;55.132;-1.586;2023-07-28T08:16:50;1.63;;;1.53;;
71164;SDS011;58859;55.132;-1.586;2023-07-28T08:19:16;1.50;;;1.40;;
71164;SDS011;58859;55.132;-1.586;2023-07-28T08:21:41;3.50;;;1.67;;
71164;SDS011;58859;55.132;-1.586;2023-07-28T08:24:07;1.83;;;1.67;;
71164;SDS011;58859;55.132;-1.586;2023-07-28T08:26:33;1.50;;;1.40;;
71164;SDS011;58859;55.132;-1.586;2023-07-28T08:28:59;2.60;;;1.60;;
71164;SDS011;58859;55.132;-1.586;2023-07-28T08:31:24;1.73;;;1.63;;
71164;SDS011;58859;55.132;-1.586;2023-07-28T08:33:50;1.80;;;1.42;;
71164;SDS011;58859;55.132;-1.586;2023-07-28T08:36:15;1.20;;;1.20;;
71164;SDS011;58859;55.132;-1.586;2023-07-28T08:38:41;1.53;;;1.13;;
71164;SDS011;58859;55.132;-1.586;2023-07-28T08:41:06;1.60;;;1.40;;
71164;SDS011;58859;55.132;-1.586;2023-07-28T08:43:31;1.80;;;1.70;;
71164;SDS011;58859;55.132;-1.586;2023-07-28T08:45:57;1.50;;;1.40;;
71164;SDS011;58859;55.132;-1.586;2023-07-28T08:48:26;2.20;;;1.77;;
71164;SDS011;58859;55.132;-1.586;2023-07-28T08:50:52;1.80;;;1.70;;
71164;SDS011;58859;55.132;-1.586;2023-07-28T08:53:18;1.58;;;1.50;;
71164;SDS011;58859;55.132;-1.586;2023-07-28T08:55:44;5.53;;;1.33;;
71164;SDS011;58859;55.132;-1.586;2023-07-28T08:58:13;2.60;;;1.33;;
71164;SDS011;58859;55.132;-1.586;2023-07-28T09:00:46;2.10;;;1.27;;
71164;SDS011;58859;55.132;-1.586;2023-07-28T09:03:16;1.40;;;1.30;;
71164;SDS011;58859;55.132;-1.586;2023-07-28T09:05:45;1.30;;;1.20;;
71164;SDS011;58859;55.132;-1.586;2023-07-28T09:08:12;0.90;;;0.90;;
71164;SDS011;58859;55.132;-1.586;2023-07-28T09:10:48;1.25;;;1.17;;
71164;SDS011;58859;55.132;-1.586;2023-07-28T09:13:15;2.15;;;1.20;;
71164;SDS011;58859;55.132;-1.586;2023-07-28T09:15:41;1.25;;;1.15;;
71164;SDS011;58859;55.132;-1.586;2023-07-28T09:18:08;1.63;;;1.20;;
71164;SDS011;58859;55.132;-1.586;2023-07-28T09:20:36;1.60;;;1.30;;
71164;SDS011;58859;55.132;-1.586;2023-07-28T09:23:02;1.05;;;1.05;;
71164;SDS011;58859;55.132;-1.586;2023-07-28T09:25:28;1.37;;;1.27;;
71164;SDS011;58859;55.132;-1.586;2023-07-28T09:27:55;1.10;;;1.00;;
71164;SDS011;58859;55.132;-1.586;2023-07-28T09:30:21;2.38;;;1.00;;
71164;SDS011;58859;55.132;-1.586;2023-07-28T09:32:48;2.20;;;1.10;;
71164;SDS011;58859;55.132;-1.586;2023-07-28T09:35:15;0.87;;;0.87;;
71164;SDS011;58859;55.132;-1.586;2023-07-28T09:37:42;1.70;;;1.08;;
71164;SDS011;58859;55.132;-1.586;2023-07-28T09:40:10;2.40;;;1.35;;
71164;SDS011;58859;55.132;-1.586;2023-07-28T09:42:40;1.95;;;0.90;;
71164;SDS011;58859;55.132;-1.586;2023-07-28T09:45:07;0.95;;;0.95;;
71164;SDS011;58859;55.132;-1.586;2023-07-28T09:47:34;0.77;;;0.77;;
71164;SDS011;58859;55.132;-1.586;2023-07-28T09:50:04;1.95;;;1.27;;
71164;SDS011;58859;55.132;-1.586;2023-07-28T09:52:35;0.90;;;0.90;;
71164;SDS011;58859;55.132;-1.586;2023-07-28T09:55:06;3.05;;;0.80;;
71164;SDS011;58859;55.132;-1.586;2023-07-28T09:57:45;0.90;;;0.90;;
71164;SDS011;58859;55.132;-1.586;2023-07-28T10:00:20;1.43;;;1.20;;
71164;SDS011;58859;55.132;-1.586;2023-07-28T10:02:47;1.60;;;1.20;;
71164;SDS011;58859;55.132;-1.586;2023-07-28T10:05:13;3.10;;;1.33;;
71164;SDS011;58859;55.132;-1.586;2023-07-28T10:07:40;1.88;;;1.45;;
71164;SDS011;58859;55.132;-1.586;2023-07-28T10:10:08;1.50;;;1.20;;
71164;SDS011;58859;55.132;-1.586;2023-07-28T10:12:39;1.50;;;1.10;;
71164;SDS011;58859;55.132;-1.586;2023-07-28T10:15:12;1.60;;;1.17;;
71164;SDS011;58859;55.132;-1.586;2023-07-28T10:17:47;2.85;;;1.05;;
71164;SDS011;58859;55.132;-1.586;2023-07-28T10:20:27;1.92;;;0.90;;
71164;SDS011;58859;55.132;-1.586;2023-07-28T10:23:13;1.77;;;0.90;;
71164;SDS011;58859;55.132;-1.586;2023-07-28T10:25:40;1.45;;;1.00;;
71164;SDS011;58859;55.132;-1.586;2023-07-28T10:28:07;1.27;;;1.17;;
71164;SDS011;58859;55.132;-1.586;2023-07-28T10:30:51;3.08;;;1.27;;
71164;SDS011;58859;55.132;-1.586;2023-07-28T10:38:47;0.80;;;0.75;;
71164;SDS011;58859;55.132;-1.586;2023-07-28T10:41:25;2.05;;;1.10;;
71164;SDS011;58859;55.132;-1.586;2023-07-28T10:43:50;1.37;;;0.80;;
71164;SDS011;58859;55.132;-1.586;2023-07-28T10:46:17;2.63;;;1.10;;
71164;SDS011;58859;55.132;-1.586;2023-07-28T10:48:46;0.80;;;0.80;;
71164;SDS011;58859;55.132;-1.586;2023-07-28T10:51:23;1.05;;;0.90;;
71164;SDS011;58859;55.132;-1.586;2023-07-28T10:53:58;1.85;;;0.88;;
71164;SDS011;58859;55.132;-1.586;2023-07-28T10:56:25;1.60;;;0.90;;
71164;SDS011;58859;55.132;-1.586;2023-07-28T10:58:58;0.95;;;0.90;;
71164;SDS011;58859;55.132;-1.586;2023-07-28T11:01:33;1.10;;;1.00;;
71164;SDS011;58859;55.132;-1.586;2023-07-28T11:06:33;0.70;;;0.70;;
71164;SDS011;58859;55.132;-1.586;2023-07-28T11:08:59;2.47;;;0.90;;
71164;SDS011;58859;55.132;-1.586;2023-07-28T11:11:25;1.63;;;0.80;;
71164;SDS011;58859;55.132;-1.586;2023-07-28T11:13:51;1.00;;;0.98;;
71164;SDS011;58859;55.132;-1.586;2023-07-28T11:16:16;2.20;;;0.93;;
71164;SDS011;58859;55.132;-1.586;2023-07-28T11:18:42;1.27;;;1.17;;
71164;SDS011;58859;55.132;-1.586;2023-07-28T11:21:08;3.10;;;1.00;;
71164;SDS011;58859;55.132;-1.586;2023-07-28T11:23:33;0.95;;;0.90;;
71164;SDS011;58859;55.132;-1.586;2023-07-28T11:25:59;1.17;;;1.10;;
71164;SDS011;58859;55.132;-1.586;2023-07-28T11:28:24;1.13;;;1.10;;
71164;SDS011;58859;55.132;-1.586;2023-07-28T11:30:50;2.15;;;1.60;;
71164;SDS011;58859;55.132;-1.586;2023-07-28T11:33:16;1.57;;;1.10;;
71164;SDS011;58859;55.132;-1.586;2023-07-28T11:35:43;4.15;;;1.73;;
71164;SDS011;58859;55.132;-1.586;2023-07-28T11:38:09;1.55;;;1.25;;
71164;SDS011;58859;55.132;-1.586;2023-07-28T11:40:36;1.75;;;1.30;;
71164;SDS011;58859;55.132;-1.586;2023-07-28T11:43:02;2.70;;;1.50;;
71164;SDS011;58859;55.132;-1.586;2023-07-28T11:45:29;2.13;;;1.40;;
71164;SDS011;58859;55.132;-1.586;2023-07-28T11:47:55;1.58;;;1.48;;
71164;SDS011;58859;55.132;-1.586;2023-07-28T11:50:29;1.75;;;1.55;;
71164;SDS011;58859;55.132;-1.586;2023-07-28T11:52:59;2.45;;;1.58;;
71164;SDS011;58859;55.132;-1.586;2023-07-28T11:55:24;1.60;;;1.50;;
71164;SDS011;58859;55.132;-1.586;2023-07-28T11:57:53;2.17;;;1.43;;
71164;SDS011;58859;55.132;-1.586;2023-07-28T12:00:24;1.95;;;1.55;;
71164;SDS011;58859;55.132;-1.586;2023-07-28T12:03:00;3.85;;;2.08;;
71164;SDS011;58859;55.132;-1.586;2023-07-28T12:05:30;1.70;;;1.60;;
71164;SDS011;58859;55.132;-1.586;2023-07-28T12:07:56;1.87;;;1.30;;
71164;SDS011;58859;55.132;-1.586;2023-07-28T12:10:21;1.70;;;1.60;;
71164;SDS011;58859;55.132;-1.586;2023-07-28T12:12:47;1.80;;;1.47;;
71164;SDS011;58859;55.132;-1.586;2023-07-28T12:18:03;1.63;;;1.48;;
71164;SDS011;58859;55.132;-1.586;2023-07-28T12:20:34;1.98;;;1.50;;
71164;SDS011;58859;55.132;-1.586;2023-07-28T12:23:00;2.28;;;1.50;;
71164;SDS011;58859;55.132;-1.586;2023-07-28T12:25:26;1.75;;;1.65;;
71164;SDS011;58859;55.132;-1.586;2023-07-28T12:27:52;3.67;;;1.80;;
71164;SDS011;58859;55.132;-1.586;2023-07-28T12:30:17;2.67;;;1.73;;
71164;SDS011;58859;55.132;-1.586;2023-07-28T12:32:43;1.88;;;1.50;;
71164;SDS011;58859;55.132;-1.586;2023-07-28T12:35:09;1.52;;;1.42;;
71164;SDS011;58859;55.132;-1.586;2023-07-28T12:37:34;1.97;;;1.60;;
71164;SDS011;58859;55.132;-1.586;2023-07-28T12:40:00;2.45;;;2.03;;
71164;SDS011;58859;55.132;-1.586;2023-07-28T12:42:26;2.65;;;1.80;;
71164;SDS011;58859;55.132;-1.586;2023-07-28T12:44:51;2.83;;;1.60;;
71164;SDS011;58859;55.132;-1.586;2023-07-28T12:47:17;1.80;;;1.70;;
71164;SDS011;58859;55.132;-1.586;2023-07-28T12:49:42;2.17;;;1.73;;
71164;SDS011;58859;55.132;-1.586;2023-07-28T12:52:08;1.90;;;1.80;;
71164;SDS011;58859;55.132;-1.586;2023-07-28T12:54:34;1.57;;;1.33;;
71164;SDS011;58859;55.132;-1.586;2023-07-28T12:57:00;1.83;;;1.13;;
71164;SDS011;58859;55.132;-1.586;2023-07-28T12:59:26;1.95;;;1.27;;
71164;SDS011;58859;55.132;-1.586;2023-07-28T13:01:53;1.30;;;1.20;;
71164;SDS011;58859;55.132;-1.586;2023-07-28T13:04:18;1.53;;;1.23;;
71164;SDS011;58859;55.132;-1.586;2023-07-28T13:06:44;1.57;;;1.20;;
71164;SDS011;58859;55.132;-1.586;2023-07-28T13:09:09;1.33;;;1.23;;
71164;SDS011;58859;55.132;-1.586;2023-07-28T13:11:35;1.00;;;1.00;;
71164;SDS011;58859;55.132;-1.586;2023-07-28T13:14:00;0.83;;;0.83;;
71164;SDS011;58859;55.132;-1.586;2023-07-28T13:16:26;0.88;;;0.88;;
71164;SDS011;58859;55.132;-1.586;2023-07-28T13:18:52;0.80;;;0.70;;
71164;SDS011;58859;55.132;-1.586;2023-07-28T13:21:17;1.10;;;1.02;;
71164;SDS011;58859;55.132;-1.586;2023-07-28T13:23:43;1.17;;;0.90;;
71164;SDS011;58859;55.132;-1.586;2023-07-28T13:26:08;0.87;;;0.80;;
71164;SDS011;58859;55.132;-1.586;2023-07-28T13:28:34;1.00;;;1.00;;
71164;SDS011;58859;55.132;-1.586;2023-07-28T13:31:02;1.30;;;0.70;;
71164;SDS011;58859;55.132;-1.586;2023-07-28T13:33:29;1.00;;;0.95;;
71164;SDS011;58859;55.132;-1.586;2023-07-28T13:35:55;1.33;;;1.05;;
71164;SDS011;58859;55.132;-1.586;2023-07-28T13:38:20;1.00;;;0.90;;
71164;SDS011;58859;55.132;-1.586;2023-07-28T13:40:46;1.27;;;1.10;;
71164;SDS011;58859;55.132;-1.586;2023-07-28T13:43:11;0.67;;;0.67;;
71164;SDS011;58859;55.132;-1.586;2023-07-28T13:45:36;1.20;;;1.10;;
71164;SDS011;58859;55.132;-1.586;2023-07-28T13:48:02;0.80;;;0.80;;
71164;SDS011;58859;55.132;-1.586;2023-07-28T13:50:28;1.40;;;0.90;;
71164;SDS011;58859;55.132;-1.586;2023-07-28T13:52:53;1.35;;;1.25;;
71164;SDS011;58859;55.132;-1.586;2023-07-28T13:55:18;1.63;;;1.00;;
71164;SDS011;58859;55.132;-1.586;2023-07-28T13:57:44;0.80;;;0.80;;
71164;SDS011;58859;55.132;-1.586;2023-07-28T14:00:10;0.80;;;0.80;;
71164;SDS011;58859;55.132;-1.586;2023-07-28T14:02:36;0.70;;;0.70;;
71164;SDS011;58859;55.132;-1.586;2023-07-28T14:05:02;1.15;;;1.05;;
71164;SDS011;58859;55.132;-1.586;2023-07-28T14:07:28;0.95;;;0.95;;
71164;SDS011;58859;55.132;-1.586;2023-07-28T14:09:54;0.70;;;0.70;;
71164;SDS011;58859;55.132;-1.586;2023-07-28T14:12:19;0.97;;;0.90;;
71164;SDS011;58859;55.132;-1.586;2023-07-28T14:14:45;0.80;;;0.80;;
71164;SDS011;58859;55.132;-1.586;2023-07-28T14:17:10;1.00;;;1.00;;
71164;SDS011;58859;55.132;-1.586;2023-07-28T14:19:39;1.60;;;0.90;;
71164;SDS011;58859;55.132;-1.586;2023-07-28T14:22:05;1.33;;;0.93;;
71164;SDS011;58859;55.132;-1.586;2023-07-28T14:24:30;1.33;;;1.10;;
71164;SDS011;58859;55.132;-1.586;2023-07-28T14:26:56;1.88;;;0.90;;
71164;SDS011;58859;55.132;-1.586;2023-07-28T14:29:21;0.97;;;0.83;;
71164;SDS011;58859;55.132;-1.586;2023-07-28T14:31:47;1.10;;;1.10;;
71164;SDS011;58859;55.132;-1.586;2023-07-28T14:34:12;1.35;;;0.70;;
71164;SDS011;58859;55.132;-1.586;2023-07-28T14:36:38;0.80;;;0.80;;
71164;SDS011;58859;55.132;-1.586;2023-07-28T14:39:03;1.10;;;1.00;;
71164;SDS011;58859;55.132;-1.586;2023-07-28T14:41:29;1.60;;;0.90;;
71164;SDS011;58859;55.132;-1.586;2023-07-28T14:43:54;1.73;;;1.30;;